KOLS/OLS METAR and TAF weather

Enter ICAO airport designator
Station Type Date Time Source
KOLS METAR 2019/04/25 07:54 UTC NOAA

KOLS 250754Z AUTO 06004KT 10SM CLR 12/M01 A3005 RMK AO2 SLP123 T01221011


Station Type Date Time Source
KOLS Decoded METAR 2019/04/25 07:54 UTC NOAA

NOGALES INTERNATIONAL AIRPORT , AZ, United States (KOLS) 31-25N 110-51W 1184M
Apr 25, 2019 - 03:54 AM EDT / 2019.04.25 0754 UTC
Wind: from the ENE (060 degrees) at 5 MPH (4 KT):0
Visibility: 10 mile(s):0
Sky conditions: clear
Temperature: 54.0 F (12.2 C)
Dew Point: 30.0 F (-1.1 C)
Relative Humidity: 39%
Pressure (altimeter): 30.05 in. Hg (1017 hPa)
ob: KOLS 250754Z AUTO 06004KT 10SM CLR 12/M01 A3005 RMK AO2 SLP123 T01221011
cycle: 8

Station Type Date Time Source
KOLS TAF 2019/04/25 06:42 UTC NOAA

TAF KOLS 250538Z 2506/2606 VRB04KT P6SM SKC
FM251700 26006KT P6SM SKC
FM252100 30008KT P6SM FEW090 SCT250
FM260300 VRB04KT P6SM SCT250

Example: see airport list